Aeroporto :
LOGIN :

Iscrizione | Disclaimer

   EN    FR    IT 

 










Sommario :    VFR   VFR Marginale   IFR   IFR Intensivo   IFR Molto Intensivo
Visibilità : 
Base nubi : 
>= 8 km
>= 3000ft
5 / 8 km
1000 / 3000 ft
1500m / 5 km
500 / 1000 ft
800 / 1500m
200 / 500 ft
< 800m
< 200 ft
Simboli :   Temporali  Nebbia  Neve Forte  Precipitazioni Forti  Vento > 20 kt
SIGMETs :   Varie  Temporali  Ghiacco  Turbolenza  Onda orograficha  Ceneri Vulcaniche






- Altitudine del aeroporto : 39 ft


ETNH - Hohn AB

ULTIMO METAR :
  • 251320Z 26027G39KT 9999 FEW018CB SCT023 BKN035 06/02 Q0988 BLU BLU TEMPO YLO

METARs OBSOLETI :
  • 251315Z 25028G42KT 9999 SCT018CB BKN035 06/02 Q0988 BLU BLU TEMPO YLO
  • 251308Z 25028G45KT 9000 -SHRA BKN018CB SCT026 06/01 Q0988 WHT BLU TEMPO YLO
  • 251244Z 25028G40KT 9999 VCSH FEW018CB SCT026 07/02 Q0988 BLU+BLU TEMPO YLO
  • 251220Z 24024G38KT 9999 BKN019 SCT050 06/02 Q0988 WHT BLU TEMPO YLO
  • 251203Z 24024G38KT 9999 FEW016TCU BKN021 06/02 Q0988 WHT BLU TEMPO YLO
  • 251120Z 24018G31KT 9999 VCSH FEW012 SCT016CB 06/03 Q0988 RESHRA BLU+BLU+ TEMPO YLO

TAF TAF ETNH
Valido dal 25 a 12 ore il 26 a 00 ore UTC


251120Z 2512/2524 25020G35KT 9999 NSW SCT020 BKN030
TEMPO 2512/2519 24025G48KT 3000 SHRAGS BKN010CB
PROB30 2512/2518 24025G55KT 2500 TSRAGS BKN010CB
BECMG 2519/2521 25010G22KT 9999 NSW SCT020 BKN240
TEMPO 2519/2524 VRB15G30KT 3000 SHSNRA BKN006 BKN020CB BY ETGL



MetMap, La meteo Aeronautica in un colpo d'occhio ! - Copyright ORBIFLY Dicembre 2007 - Disclaimer

ORBIFLY MET'MAP TEAM :

Programmazione e sviluppo : Alexandra Zaïnal
Concezione : Baudouin d'Aumeries
Aiuto per la programmazione : Marc-Olivier Méhu
Supporto tecnico e logistico : Manuel Goepfert
Aiuto per la traduzione : Arnaldo La Scala

Contatto : metmap@orbifly.com




FONTI E CREDITI :

   NOAA